x

New York Harbor Entrance - 15 Nm Se Of Breezy Point , Ny (44065) Wave Buoy

4:50am - Sat 13th Feb 2016 All times are EST. -5 hours from GMT.

  • Sig Wave height 2.6ft
  • Swell Direction
  • Peak Period 3s
  • Average Period 3s
  • Wind
    25mph, 31mph gusts
  • Sea Temp 43°f
  • Air Temp 25°f
  • Sea Pressure 1011.5mb
  • New York Harbor Entrance - 15 Nm Se Of Breezy Point , Ny
  • New York Harbor Entrance - 15 Nm Se Of Breezy Point , Ny

More Historic Weather Station data

Upgrade to MSW Pro to gain access to the past 30 days of data for over 8000 Wavebouys and Weather Stations around the globe.

Join Pro

Comparision Forecast

View Surf forecast
   
Sat 02/13 4:50am 2.5ft 3s 3s 25 31 mph 1011.5mb 43f 25f
3:50am 3ft 4s 3s 20 29 mph 1011.7mb 43f 24f
2:50am 2.5ft 3s 3s 22 29 mph 1011.9mb 43f 24f
1:50am 2.5ft 3s 3s 20 27 mph 1012.3mb 43f 24f
12:50am 2ft 3s 3s 18 25 mph 1012.8mb 43f 25f
Fri 02/12 11:50pm 2.5ft 3s 3s 18 22 mph 1013.5mb 42f 24f
10:50pm 2ft 3s 3s 18 25 mph 1013.8mb 42f 24f
9:50pm 2.5ft 3s 3s 18 22 mph 1014.3mb 42f 24f
8:50pm 2ft 4s 4s 18 29 mph 1014.5mb 42f 24f
7:50pm 1.6ft 4s 4s 16 20 mph 1015.1mb 42f 26f
6:50pm 1.3ft 10s 4s 13 18 mph 1015.5mb 42f 27f
5:50pm 1.3ft 8s 4s 11 16 mph 1016.3mb 42f 27f
4:50pm 1.3ft 11s 4s 11 16 mph 1017.2mb 42f 27f
3:50pm 1ft 9s 4s 11 16 mph 1018mb 42f 26f
2:50pm 1ft 9s 6s 9 16 mph 1018.9mb 42f 25f
1:50pm 1ft 11s 6s 11 16 mph 1020mb 42f 23f
12:50pm 1ft 9s 5s 7 11 mph 1021.3mb 42f 22f
11:50am 1ft 10s 5s 7 11 mph 1022.8mb 42f 21f
10:50am 1ft 9s 4s 7 9 mph 1023.7mb 42f 21f
9:50am 1.3ft 9s 4s 9 13 mph 1024.3mb 42f 21f
8:50am 1.6ft 3s 3s 11 13 mph 1024.8mb 42f 21f
7:50am 2ft 3s 3s 13 20 mph 1025.1mb 42f 20f
6:50am 2.5ft 4s 4s 16 25 mph 1024.7mb 42f 20f
5:50am 2.5ft 4s 4s 18 22 mph 1024.5mb 42f 20f
4:50am 2.5ft 4s 4s 22 27 mph 1024.1mb 42f 20f
3:50am 3.5ft 4s 4s 22 29 mph 1024mb 42f 21f
2:50am 3.5ft 4s 4s 25 31 mph 1023.7mb 42f 21f
1:50am 4ft 5s 4s 25 36 mph 1023.4mb 42f 22f
12:50am 4.5ft 5s 4s 27 34 mph 1022.7mb 42f 23f
Thu 02/11 11:50pm 4.5ft 5s 4s 27 31 mph 1022mb 42f 23f
10:50pm 5.5ft 5s 4s 31 38 mph 1021.2mb 42f 24f
9:50pm 5ft 5s 4s 31 38 mph 1020.7mb 42f 25f
8:50pm 4.5ft 5s 4s 34 43 mph 1019.4mb 42f 25f
7:50pm 4.5ft 5s 4s 29 38 mph 1018.6mb 42f 26f
6:50pm 5ft 5s 5s 34 40 mph 1017.5mb 42f 26f
5:50pm 5ft 5s 4s 34 43 mph 1016.2mb 42f 26f
4:50pm 5ft 5s 4s 31 40 mph 1015mb 42f 26f
3:50pm 5ft 5s 4s 34 40 mph 1013.8mb 43f 27f
2:50pm 4.5ft 5s 4s 34 40 mph 1012.7mb 43f 26f
1:50pm 4.5ft 5s 4s 31 38 mph 1012.3mb 43f 26f
12:50pm 4.5ft 5s 4s 31 38 mph 1012.1mb 43f 26f
11:50am 4.5ft 5s 4s 29 38 mph 1012.3mb 43f 26f
10:50am 4.5ft 5s 4s 29 36 mph 1012.5mb 43f 26f
9:50am 4.5ft 5s 4s 29 38 mph 1012.2mb 43f 26f
8:50am 4ft 5s 4s 27 38 mph 1012.1mb 43f 26f
7:50am 4.5ft 5s 4s 25 31 mph 1011.3mb 43f 26f
6:50am 5ft 5s 4s 29 34 mph 1010mb 43f 28f
5:50am 5.5ft 5s 5s 31 43 mph 1009mb 43f 28f
4:50am 5ft 5s 4s 34 40 mph 1008mb 43f 29f
3:50am 4.5ft 5s 4s 29 36 mph 1007.6mb 43f 28f
2:50am 4.5ft 4s 4s 31 36 mph 1007.4mb 43f 28f
1:50am 4.5ft 4s 4s 29 34 mph 1006.8mb 43f 30f
12:50am 4.5ft 4s 4s 27 31 mph 1006.7mb 43f 32f
Wed 02/10 11:50pm 4.5ft 4s 4s 27 31 mph 1006.6mb 43f 33f
10:50pm 4.5ft 4s 4s 27 31 mph 1006.7mb 43f 33f
9:50pm 4.5ft 4s 5s 25 31 mph 1006.4mb 43f 34f
8:50pm 4.5ft 4s 5s 27 31 mph 1006.1mb 43f 34f
7:50pm 4.5ft 11s 5s 27 31 mph 1005.8mb 43f 35f
6:50pm 4ft 12s 5s 27 34 mph 1005.8mb 43f 36f
5:50pm 4.5ft 13s 5s 22 27 mph 1005.2mb 43f 36f
4:50pm 4ft 4s 4s 22 27 mph 1004.2mb 43f 37f
3:50pm 4ft 12s 5s 22 27 mph 1003.5mb 43f 38f
2:50pm 4.5ft 11s 5s 22 27 mph 1002.8mb 43f 38f
1:50pm 4ft 11s 5s 22 25 mph 1002.4mb 43f 38f
12:50pm 4.5ft 11s 5s 20 25 mph 1002.6mb 43f 36f
11:50am 4.5ft 14s 5s 22 27 mph 1002.8mb 43f 35f
10:50am 4.5ft 11s 5s 25 29 mph 1002.8mb 43f 34f
9:50am 4.5ft 10s 5s 25 29 mph 1002.6mb 43f 35f
8:50am 4ft 13s 6s 20 25 mph 1002.4mb 43f 35f
7:50am 3.5ft 10s 6s 16 18 mph 1002.3mb 43f 35f
6:50am 3.5ft 10s 6s 13 16 mph 1001.9mb 43f 35f
5:50am 3.5ft 13s 7s 11 13 mph 1001.8mb 43f 35f
4:50am 3.5ft 8s 7s 4 7 mph 1002mb 43f 34f
3:50am 4ft 14s 7s 2
mph
1001.9mb 43f 34f
2:50am 4ft 11s 7s 2 4 mph 1001.9mb 43f 33f
1:50am 4ft 12s 7s 2 4 mph 1002.2mb 43f 33f
12:50am 4ft 14s 7s 2 4 mph 1002.2mb 43f 34f
Tue 02/09 11:50pm 4.5ft 13s 7s 2 4 mph 1002.2mb 43f 34f
10:50pm 4.5ft 12s 8s 4 7 mph 1002.3mb 43f 33f
9:50pm 4.5ft 13s 8s 4 7 mph 1002.6mb 43f 33f
8:50pm 4.5ft 13s 7s 4 7 mph 1002.9mb 43f 34f
7:50pm 4.5ft 13s 7s 4 7 mph 1002.7mb 43f 34f
6:50pm 4.5ft 14s 7s 2 4 mph 1002.4mb 43f 34f
5:50pm 5ft 14s 7s 4 7 mph 1001.9mb 43f 34f
4:50pm 5ft 15s 7s 4 7 mph 1001.6mb 43f 33f
3:50pm 5ft 15s 7s 2 7 mph 1001.6mb 43f 33f
2:50pm 5.5ft 14s 7s 9 11 mph 1001mb 43f 33f
1:50pm 5ft 13s 7s 11 13 mph 1001.1mb 43f 32f
12:50pm 5.5ft 14s 7s 9 13 mph 1001.3mb 43f 33f
11:50am 6ft 14s 7s 13 18 mph 1001.9mb 43f 32f